createdAt,value
2022-11-20T00:01:43.551Z,-1.24
2022-11-20T00:04:13.440Z,-1.32
2022-11-20T00:06:43.538Z,-1.30
2022-11-20T00:09:13.621Z,-1.32
2022-11-20T00:11:43.387Z,-1.28
2022-11-20T00:14:13.170Z,-1.32
2022-11-20T00:16:43.128Z,-1.28
2022-11-20T00:19:12.884Z,-1.28
2022-11-20T00:21:42.941Z,-1.34
2022-11-20T00:24:12.856Z,-1.35
2022-11-20T00:26:42.610Z,-1.34
2022-11-20T00:29:12.581Z,-1.39
2022-11-20T00:31:42.370Z,-1.50
2022-11-20T00:34:12.372Z,-1.60
2022-11-20T00:36:42.118Z,-1.48
2022-11-20T00:39:11.968Z,-1.57
2022-11-20T00:41:41.841Z,-1.60
2022-11-20T00:44:11.722Z,-1.51
2022-11-20T00:46:41.514Z,-1.58
2022-11-20T00:49:11.267Z,-1.57
2022-11-20T00:51:41.085Z,-1.57
2022-11-20T00:54:11.863Z,-1.62
2022-11-20T00:56:41.601Z,-1.64
2022-11-20T00:59:12.710Z,-1.64
2022-11-20T01:01:42.462Z,-1.66
2022-11-20T01:04:11.940Z,-1.96
2022-11-20T01:06:42.142Z,-1.78
2022-11-20T01:09:16.061Z,-1.65
2022-11-20T01:11:46.967Z,-1.67
2022-11-20T01:14:19.593Z,-1.67
2022-11-20T01:16:52.142Z,-1.63
2022-11-20T01:19:25.076Z,-1.65
2022-11-20T01:21:56.191Z,-1.74
2022-11-20T01:24:25.786Z,-1.73
2022-11-20T01:26:55.532Z,-1.70
2022-11-20T01:29:26.863Z,-1.82
2022-11-20T01:31:56.621Z,-1.80
2022-11-20T01:34:26.430Z,-1.81
2022-11-20T01:36:56.189Z,-1.90
2022-11-20T01:39:27.937Z,-1.85
2022-11-20T01:42:15.852Z,-1.69
2022-11-20T01:44:57.362Z,-1.84
2022-11-20T01:47:39.518Z,-1.91
2022-11-20T01:50:16.682Z,-2.03
2022-11-20T01:52:49.225Z,-2.03
2022-11-20T01:55:27.598Z,-2.30
2022-11-20T01:57:57.206Z,-2.20
2022-11-20T02:00:26.794Z,-2.06
2022-11-20T02:02:59.644Z,-2.06
2022-11-20T02:05:35.305Z,-2.05
2022-11-20T02:08:08.379Z,-2.00
2022-11-20T02:10:38.297Z,-2.05
2022-11-20T02:13:25.984Z,-2.05
2022-11-20T02:15:56.430Z,-2.21
2022-11-20T02:18:26.733Z,-2.02
2022-11-20T02:21:17.282Z,-2.05
2022-11-20T02:24:08.064Z,-2.11
2022-11-20T02:26:40.854Z,-2.05
2022-11-20T02:29:10.620Z,-2.06
2022-11-20T02:31:42.562Z,-2.04
2022-11-20T02:34:12.292Z,-1.94
2022-11-20T02:36:44.280Z,-2.04
2022-11-20T02:39:16.922Z,-2.07
2022-11-20T02:41:47.071Z,-2.06
2022-11-20T02:44:16.823Z,-2.06
2022-11-20T02:46:46.606Z,-1.97
2022-11-20T02:49:18.109Z,-2.15
2022-11-20T02:51:47.996Z,-2.10
2022-11-20T02:54:17.723Z,-2.18
2022-11-20T02:56:47.514Z,-2.18
2022-11-20T02:59:17.285Z,-2.13
2022-11-20T03:01:47.186Z,-2.06
2022-11-20T03:04:17.035Z,-2.16
2022-11-20T03:06:46.796Z,-2.31
2022-11-20T03:09:16.554Z,-2.48
2022-11-20T03:11:46.678Z,-2.40
2022-11-20T03:14:16.272Z,-2.48
2022-11-20T03:16:46.086Z,-2.65
2022-11-20T03:19:16.133Z,-2.66
2022-11-20T03:21:46.251Z,-2.55
2022-11-20T03:24:16.518Z,-2.54
2022-11-20T03:26:46.672Z,-2.62
2022-11-20T03:29:16.604Z,-2.62
2022-11-20T03:31:46.627Z,-2.59
2022-11-20T03:34:16.114Z,-2.58
2022-11-20T03:36:46.058Z,-2.60
2022-11-20T03:39:15.804Z,-2.50
2022-11-20T03:41:45.863Z,-2.44
2022-11-20T03:44:15.581Z,-2.39
2022-11-20T03:46:45.368Z,-2.49
2022-11-20T03:49:15.134Z,-2.54
2022-11-20T03:51:44.719Z,-2.55
2022-11-20T03:54:14.323Z,-2.59
2022-11-20T03:56:44.102Z,-2.45
2022-11-20T03:59:13.992Z,-2.43
2022-11-20T04:01:49.183Z,-2.41
2022-11-20T04:04:15.278Z,-2.51
2022-11-20T04:06:45.032Z,-2.46
2022-11-20T04:09:16.661Z,-2.49
2022-11-20T04:11:46.790Z,-2.52
2022-11-20T04:14:17.616Z,-2.61
2022-11-20T04:16:47.466Z,-2.68
2022-11-20T04:19:18.730Z,-2.60
2022-11-20T04:21:48.766Z,-2.65
2022-11-20T04:24:18.305Z,-2.63
2022-11-20T04:26:48.113Z,-2.61
2022-11-20T04:29:17.976Z,-2.64
2022-11-20T04:31:47.848Z,-2.60
2022-11-20T04:34:17.612Z,-2.54
2022-11-20T04:36:47.370Z,-2.57
2022-11-20T04:39:17.851Z,-2.78
2022-11-20T04:41:47.649Z,-2.75
2022-11-20T04:44:17.094Z,-2.71
2022-11-20T04:46:46.858Z,-2.62
2022-11-20T04:49:16.833Z,-2.76
2022-11-20T04:51:46.991Z,-2.70
2022-11-20T04:54:17.167Z,-2.56
2022-11-20T04:56:48.709Z,-2.74
2022-11-20T04:59:19.093Z,-2.69
2022-11-20T05:01:49.307Z,-2.59
2022-11-20T05:04:19.116Z,-2.60
2022-11-20T05:06:49.265Z,-2.54
2022-11-20T05:09:19.436Z,-2.62
2022-11-20T05:11:51.594Z,-2.64
2022-11-20T05:14:20.961Z,-2.69
2022-11-20T05:16:51.182Z,-2.71
2022-11-20T05:19:21.420Z,-2.81
2022-11-20T05:21:51.314Z,-2.83
2022-11-20T05:24:21.294Z,-2.73
2022-11-20T05:26:51.085Z,-3.06
2022-11-20T05:29:21.327Z,-2.99
2022-11-20T05:31:51.441Z,-2.81
2022-11-20T05:34:21.195Z,-2.84
2022-11-20T05:36:51.269Z,-2.97
2022-11-20T05:39:21.516Z,-3.23
2022-11-20T05:41:53.210Z,-3.27
2022-11-20T05:44:22.927Z,-3.03
2022-11-20T05:46:52.692Z,-2.96
2022-11-20T05:49:23.004Z,-2.89
2022-11-20T05:51:53.071Z,-2.99
2022-11-20T05:54:22.525Z,-2.90
2022-11-20T05:56:52.302Z,-2.85
2022-11-20T05:59:22.467Z,-2.78
2022-11-20T06:01:52.750Z,-2.89
2022-11-20T06:04:22.361Z,-2.99
2022-11-20T06:06:52.445Z,-2.99
2022-11-20T06:09:22.632Z,-2.93
2022-11-20T06:11:52.503Z,-2.93
2022-11-20T06:14:22.251Z,-2.99
2022-11-20T06:16:51.990Z,-3.09
2022-11-20T06:19:22.128Z,-3.08
2022-11-20T06:21:52.009Z,-2.99
2022-11-20T06:24:21.518Z,-3.00
2022-11-20T06:26:51.270Z,-3.06
2022-11-20T06:29:21.277Z,-3.16
2022-11-20T06:31:51.277Z,-3.06
2022-11-20T06:34:21.126Z,-3.03
2022-11-20T06:36:50.874Z,-3.03
2022-11-20T06:39:20.996Z,-3.04
2022-11-20T06:41:55.726Z,-3.11
2022-11-20T06:44:22.525Z,-3.02
2022-11-20T06:46:52.324Z,-3.10
2022-11-20T06:49:22.459Z,-3.10
2022-11-20T06:51:52.496Z,-2.99
2022-11-20T06:54:21.954Z,-3.00
2022-11-20T06:56:52.083Z,-2.98
2022-11-20T06:59:22.486Z,-2.97
2022-11-20T07:01:52.429Z,-2.89
2022-11-20T07:04:21.952Z,-2.96
2022-11-20T07:06:51.707Z,-2.94
2022-11-20T07:09:21.484Z,-2.77
2022-11-20T07:11:51.334Z,-3.22
2022-11-20T07:14:21.045Z,-3.15
2022-11-20T07:16:50.798Z,-2.97
2022-11-20T07:19:21.201Z,-3.06
2022-11-20T07:21:51.075Z,-2.88
2022-11-20T07:24:20.621Z,-2.94
2022-11-20T07:26:53.229Z,-2.90
2022-11-20T07:29:23.289Z,-2.91
2022-11-20T07:31:53.283Z,-2.91
2022-11-20T07:34:23.041Z,-2.84
2022-11-20T07:36:52.887Z,-2.78
2022-11-20T07:39:23.048Z,-2.76
2022-11-20T07:41:53.126Z,-2.70
2022-11-20T07:44:23.006Z,-2.27
2022-11-20T07:46:52.870Z,-2.27
2022-11-20T07:49:23.071Z,-2.32
2022-11-20T07:51:56.700Z,-2.25
2022-11-20T07:54:26.608Z,-2.24
2022-11-20T07:56:56.449Z,-1.99
2022-11-20T07:59:26.217Z,-1.56
2022-11-20T08:01:56.541Z,-1.54
2022-11-20T08:04:26.298Z,-1.56
2022-11-20T08:06:56.057Z,-1.51
2022-11-20T08:09:25.820Z,-1.37
2022-11-20T08:12:13.196Z,-1.03
2022-11-20T08:14:42.950Z,-0.92
2022-11-20T08:17:13.403Z,-0.97
2022-11-20T08:19:43.464Z,-0.93
2022-11-20T08:22:12.935Z,-0.77
2022-11-20T08:24:42.684Z,-0.78
2022-11-20T08:27:12.928Z,-0.73
2022-11-20T08:29:42.667Z,-0.79
2022-11-20T08:32:12.426Z,-0.53
2022-11-20T08:34:42.244Z,-0.54
2022-11-20T08:37:12.045Z,-0.23
2022-11-20T08:39:42.107Z,-0.34
2022-11-20T08:42:12.086Z,-0.16
2022-11-20T08:44:41.896Z,-0.09
2022-11-20T08:47:11.643Z,0.05
2022-11-20T08:49:41.400Z,0.05
2022-11-20T08:52:12.777Z,0.09
2022-11-20T08:54:42.583Z,0.06
2022-11-20T08:57:12.554Z,0.09
2022-11-20T09:02:14.739Z,0.10
2022-11-20T09:04:44.497Z,0.17
2022-11-20T09:07:14.432Z,0.24
2022-11-20T09:09:44.432Z,0.21
2022-11-20T09:12:15.265Z,0.33
2022-11-20T09:14:45.189Z,0.33
2022-11-20T09:17:15.829Z,0.25
2022-11-20T09:19:46.085Z,0.59
2022-11-20T09:22:16.225Z,0.41
2022-11-20T09:24:46.060Z,0.65
2022-11-20T09:27:15.828Z,0.85
2022-11-20T09:29:45.656Z,0.87
2022-11-20T09:32:15.733Z,1.00
2022-11-20T09:34:45.524Z,0.96
2022-11-20T09:37:15.626Z,0.97
2022-11-20T09:39:45.326Z,0.95
2022-11-20T09:42:34.805Z,1.06
2022-11-20T09:45:25.601Z,1.27
2022-11-20T09:48:33.232Z,1.43
2022-11-20T09:51:28.189Z,1.70
2022-11-20T09:54:09.740Z,1.62
2022-11-20T09:56:44.263Z,1.68
2022-11-20T09:59:34.708Z,1.62
2022-11-20T10:02:06.853Z,1.73
2022-11-20T10:04:40.800Z,1.77
2022-11-20T10:07:38.064Z,1.75
2022-11-20T10:09:56.690Z,2.09
2022-11-20T10:12:56.864Z,2.09
2022-11-20T10:15:45.836Z,2.40
2022-11-20T10:18:43.946Z,2.40
2022-11-20T10:21:27.618Z,2.42
2022-11-20T10:24:18.753Z,2.20
2022-11-20T10:27:07.544Z,2.43
2022-11-20T10:29:40.063Z,2.42
2022-11-20T10:32:15.412Z,2.36
2022-11-20T10:34:56.892Z,2.59
2022-11-20T10:37:31.797Z,2.52
2022-11-20T10:40:04.573Z,2.64
2022-11-20T10:42:46.134Z,2.55
2022-11-20T10:45:32.312Z,2.41
2022-11-20T10:48:10.864Z,2.52
2022-11-20T10:50:43.690Z,2.88
2022-11-20T10:53:39.287Z,2.88
2022-11-20T10:59:11.172Z,2.91
2022-11-20T11:01:44.821Z,2.92
2022-11-20T11:04:22.710Z,2.73
2022-11-20T11:06:55.257Z,2.54
2022-11-20T11:09:28.097Z,2.68
2022-11-20T11:14:29.938Z,2.67
2022-11-20T11:17:00.606Z,2.64
2022-11-20T11:19:30.649Z,2.80
2022-11-20T11:22:01.158Z,2.99
2022-11-20T11:24:42.149Z,3.05
2022-11-20T11:27:10.133Z,3.26
2022-11-20T11:29:39.437Z,3.24
2022-11-20T11:32:23.116Z,3.36
2022-11-20T11:35:07.868Z,3.28
2022-11-20T11:37:39.726Z,3.54
2022-11-20T11:40:23.996Z,3.55
2022-11-20T11:42:55.659Z,3.24
2022-11-20T11:45:26.426Z,3.44
2022-11-20T11:47:59.312Z,3.68
2022-11-20T11:50:30.553Z,3.83
2022-11-20T11:53:09.398Z,3.74
2022-11-20T11:55:47.849Z,3.90
2022-11-20T11:58:22.898Z,3.84
2022-11-20T12:01:01.354Z,4.05
2022-11-20T12:03:36.986Z,3.92
2022-11-20T12:06:09.482Z,4.03
2022-11-20T12:08:45.009Z,3.97
2022-11-20T12:11:20.211Z,3.61
2022-11-20T12:14:03.464Z,3.57
2022-11-20T12:16:38.751Z,3.64
2022-11-20T12:19:13.864Z,3.57
2022-11-20T12:22:03.398Z,3.43
2022-11-20T12:24:46.546Z,3.59
2022-11-20T12:27:21.875Z,3.47
2022-11-20T12:30:06.666Z,3.58
2022-11-20T12:32:39.736Z,3.77
2022-11-20T12:35:24.043Z,3.78
2022-11-20T12:38:24.896Z,3.58
2022-11-20T12:41:09.600Z,3.55
2022-11-20T12:44:12.275Z,3.57
2022-11-20T12:46:51.399Z,3.50
2022-11-20T12:49:26.870Z,3.50
2022-11-20T12:52:27.283Z,3.44
2022-11-20T12:55:12.261Z,3.80
2022-11-20T12:57:50.860Z,3.80
2022-11-20T13:00:25.655Z,3.54
2022-11-20T13:03:17.950Z,3.79
2022-11-20T13:05:59.147Z,3.89
2022-11-20T13:11:45.561Z,3.49
2022-11-20T13:14:43.947Z,3.36
2022-11-20T13:17:33.281Z,3.36
2022-11-20T13:20:05.782Z,3.58
2022-11-20T13:22:53.161Z,3.58
2022-11-20T13:25:30.755Z,3.83
2022-11-20T13:28:12.600Z,3.81
2022-11-20T13:30:54.040Z,3.57
2022-11-20T13:33:35.325Z,3.68
2022-11-20T13:36:10.898Z,3.44
2022-11-20T13:38:46.228Z,3.67
2022-11-20T13:41:32.036Z,3.90
2022-11-20T13:44:10.448Z,3.91
2022-11-20T13:46:48.505Z,4.02
2022-11-20T13:49:38.944Z,4.10
2022-11-20T13:52:35.821Z,3.96
2022-11-20T13:55:30.672Z,3.99
2022-11-20T13:58:15.395Z,3.85
2022-11-20T14:00:48.246Z,3.87
2022-11-20T14:06:03.784Z,3.84
2022-11-20T14:08:41.915Z,3.99
2022-11-20T14:11:26.337Z,3.91
2022-11-20T14:14:01.780Z,3.91
2022-11-20T14:16:34.075Z,3.84
2022-11-20T14:19:22.875Z,3.96
2022-11-20T14:21:55.402Z,3.73
2022-11-20T14:24:28.020Z,3.81
2022-11-20T14:26:57.821Z,3.75
2022-11-20T14:29:33.819Z,3.71
2022-11-20T14:32:04.822Z,3.93
2022-11-20T14:34:37.537Z,4.07
2022-11-20T14:37:16.376Z,4.16
2022-11-20T14:39:51.270Z,3.97
2022-11-20T14:42:23.787Z,4.00
2022-11-20T14:44:56.809Z,4.08
2022-11-20T14:47:32.353Z,3.85
2022-11-20T14:50:08.828Z,3.92
2022-11-20T14:52:35.387Z,4.07
2022-11-20T14:55:06.837Z,4.20
2022-11-20T14:57:38.229Z,4.11
2022-11-20T15:00:14.418Z,4.11
2022-11-20T15:02:46.641Z,4.04
2022-11-20T15:05:17.148Z,4.12
2022-11-20T15:07:50.090Z,4.03
2022-11-20T15:10:29.922Z,4.23
2022-11-20T15:13:12.752Z,3.94
2022-11-20T15:15:49.390Z,4.03
2022-11-20T15:18:22.258Z,4.09
2022-11-20T15:20:53.527Z,3.99
2022-11-20T15:23:23.840Z,4.05
2022-11-20T15:25:53.610Z,4.01
2022-11-20T15:28:48.341Z,4.05
2022-11-20T15:31:20.405Z,3.96
2022-11-20T15:33:50.884Z,4.02
2022-11-20T15:36:20.596Z,4.07
2022-11-20T15:38:50.993Z,3.92
2022-11-20T15:41:20.746Z,3.87
2022-11-20T15:43:50.858Z,3.89
2022-11-20T15:46:23.354Z,4.02
2022-11-20T15:49:00.974Z,3.93
2022-11-20T15:51:33.640Z,3.97
2022-11-20T15:54:05.347Z,3.96
2022-11-20T15:56:35.100Z,3.93
2022-11-20T15:59:05.279Z,3.91
2022-11-20T16:01:35.197Z,3.86
2022-11-20T16:04:06.818Z,4.04
2022-11-20T16:06:36.664Z,4.15
2022-11-20T16:09:06.802Z,3.93
2022-11-20T16:11:40.132Z,3.92
2022-11-20T16:14:30.227Z,3.99
2022-11-20T16:16:59.989Z,4.22
2022-11-20T16:19:30.008Z,4.22
2022-11-20T16:22:03.421Z,4.19
2022-11-20T16:24:33.890Z,4.23
2022-11-20T16:27:03.887Z,4.28
2022-11-20T16:29:33.919Z,4.42
2022-11-20T16:32:03.687Z,4.52
2022-11-20T16:34:33.723Z,4.40
2022-11-20T16:37:03.504Z,4.41
2022-11-20T16:39:33.510Z,4.45
2022-11-20T16:42:05.466Z,4.37
2022-11-20T16:44:35.709Z,4.19
2022-11-20T16:47:05.961Z,4.29
2022-11-20T16:49:36.028Z,4.47
2022-11-20T16:52:05.887Z,4.29
2022-11-20T16:54:35.973Z,4.51
2022-11-20T16:57:05.706Z,4.67
2022-11-20T16:59:35.749Z,4.51
2022-11-20T17:02:05.578Z,4.47
2022-11-20T17:04:41.708Z,4.60
2022-11-20T17:07:09.078Z,4.56
2022-11-20T17:09:39.543Z,4.55
2022-11-20T17:12:09.311Z,4.50
2022-11-20T17:14:39.339Z,4.52
2022-11-20T17:17:09.101Z,4.61
2022-11-20T17:19:39.151Z,4.60
2022-11-20T17:22:09.270Z,4.87
2022-11-20T17:24:39.364Z,4.51
2022-11-20T17:27:09.134Z,4.76
2022-11-20T17:29:42.088Z,4.69
2022-11-20T17:32:13.565Z,4.49
2022-11-20T17:34:43.325Z,4.76
2022-11-20T17:37:13.170Z,4.48
2022-11-20T17:39:44.694Z,4.79
2022-11-20T17:42:29.253Z,4.80
2022-11-20T17:44:58.865Z,4.85
2022-11-20T17:47:28.646Z,4.62
2022-11-20T17:49:58.386Z,4.94
2022-11-20T17:52:28.131Z,5.10
2022-11-20T17:54:57.878Z,5.08
2022-11-20T17:57:44.781Z,5.16
2022-11-20T18:00:17.682Z,5.00
2022-11-20T18:02:47.679Z,5.13
2022-11-20T18:05:17.818Z,5.24
2022-11-20T18:07:47.914Z,5.31
2022-11-20T18:10:19.745Z,5.30
2022-11-20T18:12:49.498Z,5.15
2022-11-20T18:15:19.366Z,5.32
2022-11-20T18:17:49.630Z,5.30
2022-11-20T18:20:30.321Z,5.21
2022-11-20T18:22:51.682Z,5.16
2022-11-20T18:25:21.410Z,5.27
2022-11-20T18:27:51.244Z,5.13
2022-11-20T18:30:21.149Z,5.23
2022-11-20T18:32:50.969Z,5.23
2022-11-20T18:35:20.533Z,5.23
2022-11-20T18:37:50.333Z,5.16
2022-11-20T18:40:20.162Z,5.12
2022-11-20T18:43:07.718Z,5.40
2022-11-20T18:45:37.444Z,5.33
2022-11-20T18:48:07.302Z,5.17
2022-11-20T18:50:37.157Z,5.17
2022-11-20T18:53:06.908Z,4.99
2022-11-20T18:55:37.392Z,5.02
2022-11-20T18:58:07.132Z,5.06
2022-11-20T19:00:36.890Z,4.93
2022-11-20T19:03:06.624Z,4.72
2022-11-20T19:05:38.408Z,4.66
2022-11-20T19:08:08.530Z,4.92
2022-11-20T19:10:38.284Z,4.80
2022-11-20T19:13:08.036Z,4.73
2022-11-20T19:15:38.249Z,4.90
2022-11-20T19:18:08.531Z,4.80
2022-11-20T19:20:38.463Z,4.62
2022-11-20T19:23:08.417Z,4.42
2022-11-20T19:25:38.580Z,4.18
2022-11-20T19:28:08.706Z,4.18
2022-11-20T19:30:40.406Z,4.20
2022-11-20T19:33:10.233Z,4.31
2022-11-20T19:35:39.974Z,4.37
2022-11-20T19:38:10.923Z,4.32
2022-11-20T19:40:40.722Z,4.18
2022-11-20T19:43:10.461Z,4.32
2022-11-20T19:45:40.270Z,4.25
2022-11-20T19:48:11.227Z,4.40
2022-11-20T19:50:40.699Z,4.26
2022-11-20T19:53:11.478Z,4.20
2022-11-20T19:55:43.073Z,4.35
2022-11-20T19:58:14.192Z,4.30
2022-11-20T20:00:43.903Z,4.30
2022-11-20T20:03:13.964Z,4.39
2022-11-20T20:05:44.182Z,4.50
2022-11-20T20:08:17.033Z,4.49
2022-11-20T20:10:46.682Z,4.64
2022-11-20T20:13:16.433Z,4.77
2022-11-20T20:15:46.547Z,4.66
2022-11-20T20:18:16.599Z,4.83
2022-11-20T20:20:46.381Z,4.81
2022-11-20T20:23:16.154Z,4.76
2022-11-20T20:25:49.100Z,4.66
2022-11-20T20:28:18.668Z,4.78
2022-11-20T20:30:48.393Z,4.65
2022-11-20T20:33:18.152Z,4.43
2022-11-20T20:35:48.127Z,4.65
2022-11-20T20:38:18.198Z,4.61
2022-11-20T20:40:49.595Z,4.65
2022-11-20T20:43:19.335Z,4.74
2022-11-20T20:45:49.685Z,4.50
2022-11-20T20:48:21.383Z,4.71
2022-11-20T20:51:02.933Z,4.65
2022-11-20T20:53:32.694Z,4.83
2022-11-20T20:56:03.877Z,4.83
2022-11-20T20:58:33.324Z,4.80
2022-11-20T21:01:05.400Z,4.87
2022-11-20T21:03:35.990Z,4.79
2022-11-20T21:06:08.331Z,4.77
2022-11-20T21:08:40.735Z,4.70
2022-11-20T21:11:19.578Z,4.58
2022-11-20T21:13:50.118Z,4.58
2022-11-20T21:16:22.376Z,4.70
2022-11-20T21:18:52.121Z,4.82
2022-11-20T21:21:39.314Z,4.79
2022-11-20T21:24:10.220Z,4.65
2022-11-20T21:26:42.282Z,4.77
2022-11-20T21:29:12.235Z,4.84
2022-11-20T21:31:42.256Z,4.69
2022-11-20T21:34:16.043Z,4.73
2022-11-20T21:36:46.423Z,4.73
2022-11-20T21:39:17.428Z,4.75
2022-11-20T21:41:47.212Z,4.67
2022-11-20T21:44:30.893Z,4.58
2022-11-20T21:46:49.195Z,4.63
2022-11-20T21:49:18.937Z,4.55
2022-11-20T21:51:48.684Z,4.60
2022-11-20T21:54:18.465Z,4.76
2022-11-20T21:56:48.225Z,4.68
2022-11-20T21:59:20.639Z,4.55
2022-11-20T22:01:50.505Z,4.49
2022-11-20T22:04:21.392Z,4.70
2022-11-20T22:06:51.597Z,4.65
2022-11-20T22:09:21.344Z,4.73
2022-11-20T22:11:51.101Z,4.53
2022-11-20T22:14:20.954Z,4.73
2022-11-20T22:16:52.837Z,4.80
2022-11-20T22:19:23.518Z,4.78
2022-11-20T22:21:53.557Z,4.73
2022-11-20T22:24:24.320Z,4.57
2022-11-20T22:26:54.184Z,4.61
2022-11-20T22:29:24.229Z,4.75
2022-11-20T22:31:53.973Z,4.59
2022-11-20T22:34:23.869Z,4.75
2022-11-20T22:36:53.764Z,4.89
2022-11-20T22:39:26.210Z,4.73
2022-11-20T22:41:56.258Z,4.61
2022-11-20T22:44:26.047Z,4.78
2022-11-20T22:46:56.035Z,4.64
2022-11-20T22:49:26.113Z,4.80
2022-11-20T22:51:55.876Z,4.69
2022-11-20T22:54:25.589Z,4.74
2022-11-20T22:56:55.500Z,4.83
2022-11-20T22:59:25.249Z,4.83
2022-11-20T23:01:54.987Z,4.59
2022-11-20T23:04:25.204Z,4.80
2022-11-20T23:06:54.860Z,4.78
2022-11-20T23:09:24.617Z,4.65
2022-11-20T23:11:54.419Z,4.61
2022-11-20T23:14:27.675Z,4.39
2022-11-20T23:16:55.825Z,4.44
2022-11-20T23:19:25.729Z,4.44
2022-11-20T23:21:55.219Z,4.63
2022-11-20T23:24:25.189Z,4.47
2022-11-20T23:26:55.132Z,4.70
2022-11-20T23:29:25.022Z,4.43
2022-11-20T23:31:55.236Z,4.60
2022-11-20T23:34:25.124Z,4.52
2022-11-20T23:36:55.266Z,4.66
2022-11-20T23:39:25.330Z,4.74
2022-11-20T23:41:55.062Z,4.65
2022-11-20T23:44:25.528Z,4.75
2022-11-20T23:46:55.686Z,4.49
2022-11-20T23:49:25.417Z,4.49
2022-11-20T23:51:55.184Z,4.66
2022-11-20T23:54:25.051Z,4.69
2022-11-20T23:56:55.133Z,4.66
2022-11-20T23:59:25.628Z,4.69
